Sonny C — WDF5921 — position and weather

sailwx.info

Track history (hours):
 
Tides and Currents Weather Stations Pressure Air Temp Water Temp Dewpoint Dewpoint Depression Visibility Wind Speed Wind Dir Waves Ship Positions

Sonny C

More information available from US FCC via Universal Licensing System and Coast Guard Vessel Documentation Center.

Last reported at 2014-Jul-15 19:33 UTC. Time now 2014-Jul-24 05:59 UTC.
Position N 29°33' W 090°24'.
Warning: this ship's position is 8 days out of date.

Length 21 m; draft 1.5 m.

Type: Tug. MMSI: 367468710.

Date/timePositionNaut miles runAvg speedWind from/ knotsBaromVisibWave heightAir tempDewpointWater temp
2014-Jul-15 19:33N 29°33' W 090°24'7 6.8
2014-Jul-15 18:33N 29°34' W 090°32'6 6.3
2014-Jul-15 17:33N 29°35' W 090°39'16 5.2
2014-Jul-15 14:29N 29°34' W 090°57'6 6.1
2014-Jul-15 13:33N 29°37' W 091°03'4 3.7
2014-Jul-15 12:33N 29°40' W 091°06'0 0.0
2014-Jul-15 11:33N 29°40' W 091°06'0 0.0
2014-Jul-15 10:33N 29°40' W 091°06'0 0.0
2014-Jul-15 09:33N 29°40' W 091°06'0 0.0
2014-Jul-15 08:33N 29°40' W 091°06'0 0.0
2014-Jul-15 07:33N 29°40' W 091°06'0 0.0
2014-Jul-15 06:33N 29°40' W 091°06'0 0.0
2014-Jul-15 05:33N 29°40' W 091°06'0 0.0
2014-Jul-15 04:33N 29°40' W 091°06'0 0.0
2014-Jul-15 03:33N 29°40' W 091°06'0 0.0
2014-Jul-15 02:33N 29°40' W 091°06'0 0.0
2014-Jul-15 01:33N 29°40' W 091°06'3 3.3
2014-Jul-15 00:33N 29°37' W 091°07'6 6.2
2014-Jul-14 23:33N 29°33' W 091°13'2 1.6
2014-Jul-14 22:33N 29°32' W 091°14'0 0.0
2014-Jul-14 21:33N 29°32' W 091°14'0 0.1
2014-Jul-14 20:33N 29°32' W 091°14'0 0.1
2014-Jul-14 19:33N 29°32' W 091°14'0 0.0
2014-Jul-14 18:33N 29°32' W 091°14'0 0.0
2014-Jul-14 17:33N 29°32' W 091°14'0 0.0
2014-Jul-14 16:33N 29°32' W 091°14'0 0.0
2014-Jul-14 15:33N 29°32' W 091°14'0 0.0
2014-Jul-14 14:32N 29°32' W 091°14'0 0.3
2014-Jul-14 13:33N 29°32' W 091°15'0 0.4
2014-Jul-14 12:33N 29°32' W 091°15'0 0.0
2014-Jul-14 11:33N 29°32' W 091°15'0 0.0
2014-Jul-14 10:33N 29°32' W 091°15'0 0.0
2014-Jul-14 09:33N 29°32' W 091°15'0 0.0
2014-Jul-14 08:33N 29°32' W 091°15'0 0.0
2014-Jul-14 07:33N 29°32' W 091°15'0 0.0
2014-Jul-14 06:33N 29°32' W 091°15'0 0.0
2014-Jul-14 05:33N 29°32' W 091°15'0 0.0
2014-Jul-14 04:33N 29°32' W 091°15'0 0.0
2014-Jul-14 03:33N 29°32' W 091°15'0 0.0
2014-Jul-14 02:33N 29°32' W 091°15'0 0.0
2014-Jul-14 01:33N 29°32' W 091°15'0 0.0
2014-Jul-14 00:33N 29°32' W 091°15'0 0.0
2014-Jul-13 23:33N 29°32' W 091°15'0 0.0
2014-Jul-13 22:33N 29°32' W 091°15'3 2.6
2014-Jul-13 21:33N 29°34' W 091°12'3 3.0
2014-Jul-13 20:33N 29°36' W 091°10'4 3.6
2014-Jul-13 19:33N 29°37' W 091°06'4 3.6
2014-Jul-13 18:28N 29°37' W 091°02'3 3.3
2014-Jul-13 17:31N 29°36' W 090°58'5 3.7
2014-Jul-13 16:14N 29°33' W 090°54'7 3.8
2014-Jul-13 14:24N 29°32' W 090°46'3 3.3
2014-Jul-13 13:29N 29°34' W 090°43'3 2.5
2014-Jul-13 12:11N 29°36' W 090°41'2 3.9
2014-Jul-13 11:33N 29°35' W 090°38'1 1.0
2014-Jul-13 10:33N 29°34' W 090°37'0 0.0
2014-Jul-13 09:33N 29°35' W 090°37'0 0.0
2014-Jul-13 08:33N 29°34' W 090°37'0 0.0
2014-Jul-13 07:33N 29°34' W 090°37'0 0.0
2014-Jul-13 06:33N 29°34' W 090°37'0 0.0
2014-Jul-13 05:33N 29°34' W 090°37'0 0.0
2014-Jul-13 04:33N 29°34' W 090°37'0 0.0
2014-Jul-13 03:33N 29°35' W 090°37'0 0.0
2014-Jul-13 02:33N 29°34' W 090°37'0 0.0
2014-Jul-13 01:33N 29°34' W 090°37'0 0.0
2014-Jul-13 00:33N 29°34' W 090°37'0 0.0
2014-Jul-12 23:33N 29°35' W 090°37'0 0.2
2014-Jul-12 22:33N 29°35' W 090°37'3 2.7
2014-Jul-12 21:33N 29°34' W 090°34'4 3.7
2014-Jul-12 20:33N 29°34' W 090°30'4 3.6
2014-Jul-12 19:33N 29°33' W 090°25'3 3.2
2014-Jul-12 18:31N 29°35' W 090°22'22 3.1
2014-Jul-12 11:12N 29°50' W 090°03'  
2014-Jul-09 19:33N 29°35' W 090°23'5 4.9
2014-Jul-09 18:33N 29°33' W 090°28'6 6.0
2014-Jul-09 17:33N 29°35' W 090°35'20 5.0
2014-Jul-09 13:30N 29°36' W 090°58'6 6.1
2014-Jul-09 12:33N 29°38' W 091°04'6 5.9
2014-Jul-09 11:33N 29°36' W 091°11'5 5.1
2014-Jul-09 10:33N 29°32' W 091°15'0 0.0
2014-Jul-09 09:33N 29°32' W 091°15'0 0.0
2014-Jul-09 08:33N 29°32' W 091°15'0 0.0
2014-Jul-09 07:33N 29°32' W 091°15'0 0.0
2014-Jul-09 06:33N 29°32' W 091°15'0 0.0
2014-Jul-09 05:33N 29°32' W 091°15'0 0.0
2014-Jul-09 04:33N 29°32' W 091°15'0 0.0
2014-Jul-09 03:33N 29°32' W 091°15'0 0.0
2014-Jul-09 02:33N 29°32' W 091°15'0 0.0
2014-Jul-09 01:33N 29°32' W 091°15'0 0.0
2014-Jul-09 00:33N 29°32' W 091°15'0 0.0
2014-Jul-08 23:33N 29°32' W 091°15'2 1.9
2014-Jul-08 22:33N 29°33' W 091°13'4 3.6
2014-Jul-08 21:33N 29°36' W 091°10'3 3.5
2014-Jul-08 20:33N 29°37' W 091°07'7 3.2
2014-Jul-08 18:26N 29°37' W 090°59'12 3.2
2014-Jul-08 14:29N 29°34' W 090°45'4 3.2
2014-Jul-08 13:19N 29°37' W 090°42'3 3.7
2014-Jul-08 12:33N 29°36' W 090°39'4 3.6
2014-Jul-08 11:33N 29°35' W 090°35'0 0.1
2014-Jul-08 10:33N 29°35' W 090°35'0 0.0
2014-Jul-08 09:33N 29°35' W 090°35'0 0.0
2014-Jul-08 08:33N 29°35' W 090°35'0 0.0
2014-Jul-08 07:33N 29°35' W 090°35'0 0.0
2014-Jul-08 06:33N 29°35' W 090°35'0 0.0
2014-Jul-08 05:33N 29°35' W 090°35'0 0.0
2014-Jul-08 04:33N 29°35' W 090°35'1 1.1
2014-Jul-08 03:33N 29°34' W 090°34'4 3.7
2014-Jul-08 02:33N 29°34' W 090°30'4 4.0
2014-Jul-08 01:33N 29°33' W 090°25'3 3.2
2014-Jul-08 00:33N 29°35' W 090°22'29 0.8
2014-Jul-06 12:15N 29°52' W 089°55'3 4.1
2014-Jul-06 11:33N 29°53' W 089°58'3 2.6
2014-Jul-06 10:29N 29°50' W 089°60'  
Track history (hours):
 
Tides and Currents Weather Stations Pressure Air Temp Water Temp Dewpoint Dewpoint Depression Visibility Wind Speed Wind Dir Waves Ship Positions

Sonny C

More information available from US FCC via Universal Licensing System and Coast Guard Vessel Documentation Center.

Last reported at 2014-Jul-15 19:33 UTC. Time now 2014-Jul-24 05:59 UTC.
Position N 29°33' W 090°24'.
Warning: this ship's position is 8 days out of date.

Length 21 m; draft 1.5 m.

Type: Tug. MMSI: 367468710.

Date/timePositionNaut miles runAvg speedWind from/ knotsBaromVisibWave heightAir tempDewpointWater temp
2014-Jul-15 19:33N 29°33' W 090°24'7 6.8
2014-Jul-15 18:33N 29°34' W 090°32'6 6.3
2014-Jul-15 17:33N 29°35' W 090°39'16 5.2
2014-Jul-15 14:29N 29°34' W 090°57'6 6.1
2014-Jul-15 13:33N 29°37' W 091°03'4 3.7
2014-Jul-15 12:33N 29°40' W 091°06'0 0.0
2014-Jul-15 11:33N 29°40' W 091°06'0 0.0
2014-Jul-15 10:33N 29°40' W 091°06'0 0.0
2014-Jul-15 09:33N 29°40' W 091°06'0 0.0
2014-Jul-15 08:33N 29°40' W 091°06'0 0.0
2014-Jul-15 07:33N 29°40' W 091°06'0 0.0
2014-Jul-15 06:33N 29°40' W 091°06'0 0.0
2014-Jul-15 05:33N 29°40' W 091°06'0 0.0
2014-Jul-15 04:33N 29°40' W 091°06'0 0.0
2014-Jul-15 03:33N 29°40' W 091°06'0 0.0
2014-Jul-15 02:33N 29°40' W 091°06'0 0.0
2014-Jul-15 01:33N 29°40' W 091°06'3 3.3
2014-Jul-15 00:33N 29°37' W 091°07'6 6.2
2014-Jul-14 23:33N 29°33' W 091°13'2 1.6
2014-Jul-14 22:33N 29°32' W 091°14'0 0.0
2014-Jul-14 21:33N 29°32' W 091°14'0 0.1
2014-Jul-14 20:33N 29°32' W 091°14'0 0.1
2014-Jul-14 19:33N 29°32' W 091°14'0 0.0
2014-Jul-14 18:33N 29°32' W 091°14'0 0.0
2014-Jul-14 17:33N 29°32' W 091°14'0 0.0
2014-Jul-14 16:33N 29°32' W 091°14'0 0.0
2014-Jul-14 15:33N 29°32' W 091°14'0 0.0
2014-Jul-14 14:32N 29°32' W 091°14'0 0.3
2014-Jul-14 13:33N 29°32' W 091°15'0 0.4
2014-Jul-14 12:33N 29°32' W 091°15'0 0.0
2014-Jul-14 11:33N 29°32' W 091°15'0 0.0
2014-Jul-14 10:33N 29°32' W 091°15'0 0.0
2014-Jul-14 09:33N 29°32' W 091°15'0 0.0
2014-Jul-14 08:33N 29°32' W 091°15'0 0.0
2014-Jul-14 07:33N 29°32' W 091°15'0 0.0
2014-Jul-14 06:33N 29°32' W 091°15'0 0.0
2014-Jul-14 05:33N 29°32' W 091°15'0 0.0
2014-Jul-14 04:33N 29°32' W 091°15'0 0.0
2014-Jul-14 03:33N 29°32' W 091°15'0 0.0
2014-Jul-14 02:33N 29°32' W 091°15'0 0.0
2014-Jul-14 01:33N 29°32' W 091°15'0 0.0
2014-Jul-14 00:33N 29°32' W 091°15'0 0.0
2014-Jul-13 23:33N 29°32' W 091°15'0 0.0
2014-Jul-13 22:33N 29°32' W 091°15'3 2.6
2014-Jul-13 21:33N 29°34' W 091°12'3 3.0
2014-Jul-13 20:33N 29°36' W 091°10'4 3.6
2014-Jul-13 19:33N 29°37' W 091°06'4 3.6
2014-Jul-13 18:28N 29°37' W 091°02'3 3.3
2014-Jul-13 17:31N 29°36' W 090°58'5 3.7
2014-Jul-13 16:14N 29°33' W 090°54'7 3.8
2014-Jul-13 14:24N 29°32' W 090°46'3 3.3
2014-Jul-13 13:29N 29°34' W 090°43'3 2.5
2014-Jul-13 12:11N 29°36' W 090°41'2 3.9
2014-Jul-13 11:33N 29°35' W 090°38'1 1.0
2014-Jul-13 10:33N 29°34' W 090°37'0 0.0
2014-Jul-13 09:33N 29°35' W 090°37'0 0.0
2014-Jul-13 08:33N 29°34' W 090°37'0 0.0
2014-Jul-13 07:33N 29°34' W 090°37'0 0.0
2014-Jul-13 06:33N 29°34' W 090°37'0 0.0
2014-Jul-13 05:33N 29°34' W 090°37'0 0.0
2014-Jul-13 04:33N 29°34' W 090°37'0 0.0
2014-Jul-13 03:33N 29°35' W 090°37'0 0.0
2014-Jul-13 02:33N 29°34' W 090°37'0 0.0
2014-Jul-13 01:33N 29°34' W 090°37'0 0.0
2014-Jul-13 00:33N 29°34' W 090°37'0 0.0
2014-Jul-12 23:33N 29°35' W 090°37'0 0.2
2014-Jul-12 22:33N 29°35' W 090°37'3 2.7
2014-Jul-12 21:33N 29°34' W 090°34'4 3.7
2014-Jul-12 20:33N 29°34' W 090°30'4 3.6
2014-Jul-12 19:33N 29°33' W 090°25'3 3.2
2014-Jul-12 18:31N 29°35' W 090°22'22 3.1
2014-Jul-12 11:12N 29°50' W 090°03'  
2014-Jul-09 19:33N 29°35' W 090°23'5 4.9
2014-Jul-09 18:33N 29°33' W 090°28'6 6.0
2014-Jul-09 17:33N 29°35' W 090°35'20 5.0
2014-Jul-09 13:30N 29°36' W 090°58'6 6.1
2014-Jul-09 12:33N 29°38' W 091°04'6 5.9
2014-Jul-09 11:33N 29°36' W 091°11'5 5.1
2014-Jul-09 10:33N 29°32' W 091°15'0 0.0
2014-Jul-09 09:33N 29°32' W 091°15'0 0.0
2014-Jul-09 08:33N 29°32' W 091°15'0 0.0
2014-Jul-09 07:33N 29°32' W 091°15'0 0.0
2014-Jul-09 06:33N 29°32' W 091°15'0 0.0
2014-Jul-09 05:33N 29°32' W 091°15'0 0.0
2014-Jul-09 04:33N 29°32' W 091°15'0 0.0
2014-Jul-09 03:33N 29°32' W 091°15'0 0.0
2014-Jul-09 02:33N 29°32' W 091°15'0 0.0
2014-Jul-09 01:33N 29°32' W 091°15'0 0.0
2014-Jul-09 00:33N 29°32' W 091°15'0 0.0
2014-Jul-08 23:33N 29°32' W 091°15'2 1.9
2014-Jul-08 22:33N 29°33' W 091°13'4 3.6
2014-Jul-08 21:33N 29°36' W 091°10'3 3.5
2014-Jul-08 20:33N 29°37' W 091°07'7 3.2
2014-Jul-08 18:26N 29°37' W 090°59'12 3.2
2014-Jul-08 14:29N 29°34' W 090°45'4 3.2
2014-Jul-08 13:19N 29°37' W 090°42'3 3.7
2014-Jul-08 12:33N 29°36' W 090°39'4 3.6
2014-Jul-08 11:33N 29°35' W 090°35'0 0.1
2014-Jul-08 10:33N 29°35' W 090°35'0 0.0
2014-Jul-08 09:33N 29°35' W 090°35'0 0.0
2014-Jul-08 08:33N 29°35' W 090°35'0 0.0
2014-Jul-08 07:33N 29°35' W 090°35'0 0.0
2014-Jul-08 06:33N 29°35' W 090°35'0 0.0
2014-Jul-08 05:33N 29°35' W 090°35'0 0.0
2014-Jul-08 04:33N 29°35' W 090°35'1 1.1
2014-Jul-08 03:33N 29°34' W 090°34'4 3.7
2014-Jul-08 02:33N 29°34' W 090°30'4 4.0
2014-Jul-08 01:33N 29°33' W 090°25'3 3.2
2014-Jul-08 00:33N 29°35' W 090°22'29 0.8
2014-Jul-06 12:15N 29°52' W 089°55'3 4.1
2014-Jul-06 11:33N 29°53' W 089°58'3 2.6
2014-Jul-06 10:29N 29°50' W 089°60'  

Dump ship's entire track history